sensor_id;sensor_type;location;lat;lon;timestamp;P1;durP1;ratioP1;P2;durP2;ratioP2
52248;SDS011;38541;48.130;8.378;2022-07-29T00:00:50;2.42;;;2.33;;
52248;SDS011;38541;48.130;8.378;2022-07-29T00:03:17;2.75;;;2.55;;
52248;SDS011;38541;48.130;8.378;2022-07-29T00:05:44;2.92;;;2.72;;
52248;SDS011;38541;48.130;8.378;2022-07-29T00:08:10;3.08;;;2.88;;
52248;SDS011;38541;48.130;8.378;2022-07-29T00:10:38;3.10;;;2.90;;
52248;SDS011;38541;48.130;8.378;2022-07-29T00:13:04;3.58;;;3.28;;
52248;SDS011;38541;48.130;8.378;2022-07-29T00:15:31;2.70;;;2.50;;
52248;SDS011;38541;48.130;8.378;2022-07-29T00:17:58;2.80;;;2.60;;
52248;SDS011;38541;48.130;8.378;2022-07-29T00:20:24;2.83;;;2.60;;
52248;SDS011;38541;48.130;8.378;2022-07-29T00:22:51;2.80;;;2.60;;
52248;SDS011;38541;48.130;8.378;2022-07-29T00:25:18;2.55;;;2.42;;
52248;SDS011;38541;48.130;8.378;2022-07-29T00:27:45;2.72;;;2.53;;
52248;SDS011;38541;48.130;8.378;2022-07-29T00:30:16;2.55;;;2.45;;
52248;SDS011;38541;48.130;8.378;2022-07-29T00:32:42;3.40;;;2.75;;
52248;SDS011;38541;48.130;8.378;2022-07-29T00:35:09;2.95;;;2.65;;
52248;SDS011;38541;48.130;8.378;2022-07-29T00:37:54;4.70;;;2.95;;
52248;SDS011;38541;48.130;8.378;2022-07-29T00:40:21;2.92;;;2.72;;
52248;SDS011;38541;48.130;8.378;2022-07-29T00:42:49;3.28;;;3.03;;
52248;SDS011;38541;48.130;8.378;2022-07-29T00:45:17;3.42;;;3.13;;
52248;SDS011;38541;48.130;8.378;2022-07-29T00:47:46;2.88;;;2.67;;
52248;SDS011;38541;48.130;8.378;2022-07-29T00:50:12;2.83;;;2.63;;
52248;SDS011;38541;48.130;8.378;2022-07-29T00:52:41;3.63;;;2.65;;
52248;SDS011;38541;48.130;8.378;2022-07-29T00:55:09;3.13;;;2.92;;
52248;SDS011;38541;48.130;8.378;2022-07-29T00:57:38;3.35;;;3.10;;
52248;SDS011;38541;48.130;8.378;2022-07-29T01:00:08;3.80;;;3.20;;
52248;SDS011;38541;48.130;8.378;2022-07-29T01:02:37;6.00;;;3.10;;
52248;SDS011;38541;48.130;8.378;2022-07-29T01:05:04;2.95;;;2.75;;
52248;SDS011;38541;48.130;8.378;2022-07-29T01:07:32;3.53;;;3.22;;
52248;SDS011;38541;48.130;8.378;2022-07-29T01:10:02;3.28;;;3.08;;
52248;SDS011;38541;48.130;8.378;2022-07-29T01:12:30;3.50;;;3.05;;
52248;SDS011;38541;48.130;8.378;2022-07-29T01:15:00;3.40;;;3.10;;
52248;SDS011;38541;48.130;8.378;2022-07-29T01:26:30;4.25;;;3.00;;
52248;SDS011;38541;48.130;8.378;2022-07-29T01:29:24;3.20;;;3.00;;
52248;SDS011;38541;48.130;8.378;2022-07-29T01:32:08;3.50;;;3.20;;
52248;SDS011;38541;48.130;8.378;2022-07-29T01:34:55;2.90;;;2.70;;
52248;SDS011;38541;48.130;8.378;2022-07-29T01:37:31;3.30;;;3.10;;
52248;SDS011;38541;48.130;8.378;2022-07-29T01:39:59;3.03;;;2.83;;
52248;SDS011;38541;48.130;8.378;2022-07-29T01:42:35;3.22;;;3.03;;
52248;SDS011;38541;48.130;8.378;2022-07-29T01:45:15;3.67;;;3.38;;
52248;SDS011;38541;48.130;8.378;2022-07-29T01:47:53;4.82;;;3.67;;
52248;SDS011;38541;48.130;8.378;2022-07-29T01:50:26;3.60;;;3.40;;
52248;SDS011;38541;48.130;8.378;2022-07-29T01:53:00;3.45;;;3.22;;
52248;SDS011;38541;48.130;8.378;2022-07-29T01:55:29;3.28;;;3.08;;
52248;SDS011;38541;48.130;8.378;2022-07-29T01:58:00;3.60;;;3.28;;
52248;SDS011;38541;48.130;8.378;2022-07-29T02:00:31;3.58;;;3.28;;
52248;SDS011;38541;48.130;8.378;2022-07-29T02:03:00;3.00;;;2.63;;
52248;SDS011;38541;48.130;8.378;2022-07-29T02:05:31;4.25;;;3.10;;
52248;SDS011;38541;48.130;8.378;2022-07-29T02:08:00;3.15;;;2.95;;
52248;SDS011;38541;48.130;8.378;2022-07-29T02:10:29;2.55;;;2.35;;
52248;SDS011;38541;48.130;8.378;2022-07-29T02:12:57;3.33;;;2.45;;
52248;SDS011;38541;48.130;8.378;2022-07-29T02:15:26;3.45;;;3.15;;
52248;SDS011;38541;48.130;8.378;2022-07-29T02:17:55;2.85;;;2.65;;
52248;SDS011;38541;48.130;8.378;2022-07-29T02:20:26;2.90;;;2.70;;
52248;SDS011;38541;48.130;8.378;2022-07-29T02:22:55;2.90;;;2.70;;
52248;SDS011;38541;48.130;8.378;2022-07-29T02:25:23;2.67;;;2.47;;
52248;SDS011;38541;48.130;8.378;2022-07-29T02:28:02;3.00;;;2.80;;
52248;SDS011;38541;48.130;8.378;2022-07-29T02:30:31;3.33;;;3.08;;
52248;SDS011;38541;48.130;8.378;2022-07-29T02:32:59;3.08;;;2.88;;
52248;SDS011;38541;48.130;8.378;2022-07-29T02:35:27;2.38;;;2.17;;
52248;SDS011;38541;48.130;8.378;2022-07-29T02:38:00;2.05;;;1.95;;
52248;SDS011;38541;48.130;8.378;2022-07-29T02:40:47;2.72;;;2.60;;
52248;SDS011;38541;48.130;8.378;2022-07-29T02:43:15;3.13;;;2.92;;
52248;SDS011;38541;48.130;8.378;2022-07-29T02:45:43;2.90;;;2.70;;
52248;SDS011;38541;48.130;8.378;2022-07-29T02:48:17;3.15;;;2.95;;
52248;SDS011;38541;48.130;8.378;2022-07-29T02:50:49;3.30;;;3.00;;
52248;SDS011;38541;48.130;8.378;2022-07-29T02:53:18;2.75;;;2.63;;
52248;SDS011;38541;48.130;8.378;2022-07-29T02:55:49;3.20;;;3.00;;
52248;SDS011;38541;48.130;8.378;2022-07-29T02:58:22;3.00;;;2.80;;
52248;SDS011;38541;48.130;8.378;2022-07-29T03:00:59;2.88;;;2.67;;
52248;SDS011;38541;48.130;8.378;2022-07-29T03:03:34;3.53;;;3.28;;
52248;SDS011;38541;48.130;8.378;2022-07-29T03:06:04;4.30;;;2.90;;
52248;SDS011;38541;48.130;8.378;2022-07-29T03:08:32;3.03;;;2.83;;
52248;SDS011;38541;48.130;8.378;2022-07-29T03:11:01;3.38;;;3.08;;
52248;SDS011;38541;48.130;8.378;2022-07-29T03:13:28;3.38;;;3.13;;
52248;SDS011;38541;48.130;8.378;2022-07-29T03:15:56;4.22;;;3.53;;
52248;SDS011;38541;48.130;8.378;2022-07-29T03:18:24;4.28;;;3.67;;
52248;SDS011;38541;48.130;8.378;2022-07-29T03:20:51;6.18;;;4.47;;
52248;SDS011;38541;48.130;8.378;2022-07-29T03:23:19;6.13;;;5.15;;
52248;SDS011;38541;48.130;8.378;2022-07-29T03:25:47;4.50;;;4.10;;
52248;SDS011;38541;48.130;8.378;2022-07-29T03:28:13;3.88;;;3.58;;
52248;SDS011;38541;48.130;8.378;2022-07-29T03:30:41;4.18;;;3.75;;
52248;SDS011;38541;48.130;8.378;2022-07-29T03:33:10;4.50;;;4.10;;
52248;SDS011;38541;48.130;8.378;2022-07-29T03:35:39;4.00;;;3.67;;
52248;SDS011;38541;48.130;8.378;2022-07-29T03:38:05;4.00;;;3.60;;
52248;SDS011;38541;48.130;8.378;2022-07-29T03:40:41;5.63;;;3.88;;
52248;SDS011;38541;48.130;8.378;2022-07-29T03:43:12;3.65;;;3.35;;
52248;SDS011;38541;48.130;8.378;2022-07-29T03:45:42;3.88;;;3.58;;
52248;SDS011;38541;48.130;8.378;2022-07-29T03:48:12;5.75;;;2.95;;
52248;SDS011;38541;48.130;8.378;2022-07-29T03:50:41;3.17;;;2.97;;
52248;SDS011;38541;48.130;8.378;2022-07-29T03:53:08;3.50;;;3.20;;
52248;SDS011;38541;48.130;8.378;2022-07-29T03:55:41;4.38;;;3.97;;
52248;SDS011;38541;48.130;8.378;2022-07-29T03:58:11;4.65;;;3.83;;
52248;SDS011;38541;48.130;8.378;2022-07-29T04:00:39;4.60;;;4.20;;
52248;SDS011;38541;48.130;8.378;2022-07-29T04:03:08;4.70;;;3.83;;
52248;SDS011;38541;48.130;8.378;2022-07-29T04:05:37;5.50;;;4.03;;
52248;SDS011;38541;48.130;8.378;2022-07-29T04:08:03;4.25;;;3.90;;
52248;SDS011;38541;48.130;8.378;2022-07-29T04:10:30;4.57;;;4.10;;
52248;SDS011;38541;48.130;8.378;2022-07-29T04:13:00;3.90;;;3.60;;
52248;SDS011;38541;48.130;8.378;2022-07-29T04:15:27;4.03;;;3.50;;
52248;SDS011;38541;48.130;8.378;2022-07-29T04:17:56;3.80;;;3.50;;
52248;SDS011;38541;48.130;8.378;2022-07-29T04:20:23;4.38;;;2.80;;
52248;SDS011;38541;48.130;8.378;2022-07-29T04:22:50;3.50;;;3.17;;
52248;SDS011;38541;48.130;8.378;2022-07-29T04:25:16;3.30;;;3.10;;
52248;SDS011;38541;48.130;8.378;2022-07-29T04:27:43;3.33;;;3.13;;
52248;SDS011;38541;48.130;8.378;2022-07-29T04:30:26;3.25;;;3.05;;
52248;SDS011;38541;48.130;8.378;2022-07-29T04:32:53;3.88;;;3.47;;
52248;SDS011;38541;48.130;8.378;2022-07-29T04:35:19;3.63;;;3.33;;
52248;SDS011;38541;48.130;8.378;2022-07-29T04:37:46;3.72;;;3.42;;
52248;SDS011;38541;48.130;8.378;2022-07-29T04:40:13;4.10;;;3.80;;
52248;SDS011;38541;48.130;8.378;2022-07-29T04:42:40;7.45;;;3.67;;
52248;SDS011;38541;48.130;8.378;2022-07-29T04:45:12;3.83;;;3.45;;
52248;SDS011;38541;48.130;8.378;2022-07-29T04:47:39;3.95;;;3.65;;
52248;SDS011;38541;48.130;8.378;2022-07-29T04:50:06;3.67;;;3.38;;
52248;SDS011;38541;48.130;8.378;2022-07-29T04:52:34;3.70;;;3.40;;
52248;SDS011;38541;48.130;8.378;2022-07-29T04:55:01;4.18;;;3.65;;
52248;SDS011;38541;48.130;8.378;2022-07-29T04:57:28;4.25;;;3.85;;
52248;SDS011;38541;48.130;8.378;2022-07-29T04:59:55;4.72;;;4.32;;
52248;SDS011;38541;48.130;8.378;2022-07-29T05:02:22;5.93;;;4.70;;
52248;SDS011;38541;48.130;8.378;2022-07-29T05:04:48;9.73;;;8.00;;
52248;SDS011;38541;48.130;8.378;2022-07-29T05:07:15;10.38;;;8.27;;
52248;SDS011;38541;48.130;8.378;2022-07-29T05:09:41;6.25;;;5.38;;
52248;SDS011;38541;48.130;8.378;2022-07-29T05:12:08;5.18;;;4.30;;
52248;SDS011;38541;48.130;8.378;2022-07-29T05:14:35;4.05;;;3.70;;
52248;SDS011;38541;48.130;8.378;2022-07-29T05:17:02;4.95;;;3.83;;
52248;SDS011;38541;48.130;8.378;2022-07-29T05:19:28;5.05;;;4.53;;
52248;SDS011;38541;48.130;8.378;2022-07-29T05:21:55;4.50;;;4.10;;
52248;SDS011;38541;48.130;8.378;2022-07-29T05:24:22;4.75;;;4.35;;
52248;SDS011;38541;48.130;8.378;2022-07-29T05:26:48;4.68;;;4.03;;
52248;SDS011;38541;48.130;8.378;2022-07-29T05:29:15;4.80;;;4.05;;
52248;SDS011;38541;48.130;8.378;2022-07-29T05:34:28;4.90;;;4.00;;
52248;SDS011;38541;48.130;8.378;2022-07-29T05:36:55;4.82;;;4.43;;
52248;SDS011;38541;48.130;8.378;2022-07-29T05:39:22;5.05;;;4.55;;
52248;SDS011;38541;48.130;8.378;2022-07-29T05:42:09;6.82;;;4.68;;
52248;SDS011;38541;48.130;8.378;2022-07-29T05:44:36;7.13;;;4.85;;
52248;SDS011;38541;48.130;8.378;2022-07-29T05:47:04;4.40;;;4.00;;
52248;SDS011;38541;48.130;8.378;2022-07-29T05:49:30;4.30;;;3.90;;
52248;SDS011;38541;48.130;8.378;2022-07-29T05:51:57;4.53;;;4.22;;
52248;SDS011;38541;48.130;8.378;2022-07-29T05:54:24;4.60;;;4.20;;
52248;SDS011;38541;48.130;8.378;2022-07-29T05:56:51;4.55;;;4.15;;
52248;SDS011;38541;48.130;8.378;2022-07-29T05:59:18;4.25;;;3.42;;
52248;SDS011;38541;48.130;8.378;2022-07-29T06:01:45;4.50;;;3.63;;
52248;SDS011;38541;48.130;8.378;2022-07-29T06:04:11;4.45;;;4.05;;
52248;SDS011;38541;48.130;8.378;2022-07-29T06:06:39;4.00;;;3.60;;
52248;SDS011;38541;48.130;8.378;2022-07-29T06:09:08;5.90;;;5.35;;
52248;SDS011;38541;48.130;8.378;2022-07-29T06:11:38;6.13;;;5.18;;
52248;SDS011;38541;48.130;8.378;2022-07-29T06:14:05;6.25;;;4.72;;
52248;SDS011;38541;48.130;8.378;2022-07-29T06:16:31;7.90;;;4.40;;
52248;SDS011;38541;48.130;8.378;2022-07-29T06:18:58;6.72;;;4.38;;
52248;SDS011;38541;48.130;8.378;2022-07-29T06:21:24;4.07;;;3.78;;
52248;SDS011;38541;48.130;8.378;2022-07-29T06:23:51;5.97;;;4.40;;
52248;SDS011;38541;48.130;8.378;2022-07-29T06:26:18;5.93;;;4.00;;
52248;SDS011;38541;48.130;8.378;2022-07-29T06:28:56;4.47;;;3.85;;
52248;SDS011;38541;48.130;8.378;2022-07-29T06:31:23;4.25;;;3.85;;
52248;SDS011;38541;48.130;8.378;2022-07-29T06:33:50;4.55;;;3.97;;
52248;SDS011;38541;48.130;8.378;2022-07-29T06:36:19;6.20;;;3.75;;
52248;SDS011;38541;48.130;8.378;2022-07-29T06:38:48;7.22;;;4.95;;
52248;SDS011;38541;48.130;8.378;2022-07-29T06:41:17;4.68;;;4.28;;
52248;SDS011;38541;48.130;8.378;2022-07-29T06:43:44;5.03;;;4.63;;
52248;SDS011;38541;48.130;8.378;2022-07-29T06:46:19;5.47;;;4.97;;
52248;SDS011;38541;48.130;8.378;2022-07-29T06:48:47;8.02;;;5.43;;
52248;SDS011;38541;48.130;8.378;2022-07-29T06:51:15;7.00;;;5.60;;
52248;SDS011;38541;48.130;8.378;2022-07-29T06:53:48;7.18;;;6.10;;
52248;SDS011;38541;48.130;8.378;2022-07-29T06:56:25;6.55;;;5.55;;
52248;SDS011;38541;48.130;8.378;2022-07-29T06:58:52;6.07;;;5.47;;
52248;SDS011;38541;48.130;8.378;2022-07-29T07:01:19;5.07;;;4.65;;
52248;SDS011;38541;48.130;8.378;2022-07-29T07:03:47;5.90;;;5.35;;
52248;SDS011;38541;48.130;8.378;2022-07-29T07:06:13;5.68;;;4.53;;
52248;SDS011;38541;48.130;8.378;2022-07-29T07:08:40;4.50;;;4.10;;
52248;SDS011;38541;48.130;8.378;2022-07-29T07:11:07;4.32;;;3.85;;
52248;SDS011;38541;48.130;8.378;2022-07-29T07:13:34;4.50;;;4.07;;
52248;SDS011;38541;48.130;8.378;2022-07-29T07:16:02;3.97;;;3.20;;
52248;SDS011;38541;48.130;8.378;2022-07-29T07:18:29;4.35;;;3.67;;
52248;SDS011;38541;48.130;8.378;2022-07-29T07:20:56;5.07;;;4.35;;
52248;SDS011;38541;48.130;8.378;2022-07-29T07:23:23;3.47;;;3.20;;
52248;SDS011;38541;48.130;8.378;2022-07-29T07:25:51;4.30;;;3.90;;
52248;SDS011;38541;48.130;8.378;2022-07-29T07:28:18;4.45;;;4.05;;
52248;SDS011;38541;48.130;8.378;2022-07-29T07:30:50;3.97;;;3.67;;
52248;SDS011;38541;48.130;8.378;2022-07-29T07:33:17;3.83;;;3.53;;
52248;SDS011;38541;48.130;8.378;2022-07-29T07:35:44;4.72;;;4.18;;
52248;SDS011;38541;48.130;8.378;2022-07-29T07:38:11;4.43;;;4.00;;
52248;SDS011;38541;48.130;8.378;2022-07-29T07:40:38;4.20;;;3.80;;
52248;SDS011;38541;48.130;8.378;2022-07-29T07:43:04;4.63;;;4.22;;
52248;SDS011;38541;48.130;8.378;2022-07-29T07:45:31;4.43;;;4.03;;
52248;SDS011;38541;48.130;8.378;2022-07-29T07:48:03;3.08;;;2.83;;
52248;SDS011;38541;48.130;8.378;2022-07-29T07:50:30;8.35;;;3.40;;
52248;SDS011;38541;48.130;8.378;2022-07-29T07:52:57;3.17;;;2.97;;
52248;SDS011;38541;48.130;8.378;2022-07-29T07:55:24;3.47;;;2.88;;
52248;SDS011;38541;48.130;8.378;2022-07-29T07:57:52;3.88;;;2.33;;
52248;SDS011;38541;48.130;8.378;2022-07-29T08:00:19;2.95;;;2.30;;
52248;SDS011;38541;48.130;8.378;2022-07-29T08:02:49;2.40;;;2.20;;
52248;SDS011;38541;48.130;8.378;2022-07-29T08:05:16;2.30;;;2.08;;
52248;SDS011;38541;48.130;8.378;2022-07-29T08:07:44;2.13;;;1.92;;
52248;SDS011;38541;48.130;8.378;2022-07-29T08:10:13;2.75;;;2.55;;
52248;SDS011;38541;48.130;8.378;2022-07-29T08:12:42;2.50;;;1.83;;
52248;SDS011;38541;48.130;8.378;2022-07-29T08:15:08;1.90;;;1.80;;
52248;SDS011;38541;48.130;8.378;2022-07-29T08:17:35;4.32;;;2.05;;
52248;SDS011;38541;48.130;8.378;2022-07-29T08:20:02;4.05;;;1.67;;
52248;SDS011;38541;48.130;8.378;2022-07-29T08:22:29;3.33;;;2.10;;
52248;SDS011;38541;48.130;8.378;2022-07-29T08:24:56;2.47;;;2.28;;
52248;SDS011;38541;48.130;8.378;2022-07-29T08:27:22;11.35;;;2.58;;
52248;SDS011;38541;48.130;8.378;2022-07-29T08:30:09;2.60;;;2.00;;
52248;SDS011;38541;48.130;8.378;2022-07-29T08:32:48;2.90;;;2.00;;
52248;SDS011;38541;48.130;8.378;2022-07-29T08:35:20;2.40;;;2.20;;
52248;SDS011;38541;48.130;8.378;2022-07-29T08:37:47;3.25;;;2.38;;
52248;SDS011;38541;48.130;8.378;2022-07-29T08:40:14;2.85;;;2.20;;
52248;SDS011;38541;48.130;8.378;2022-07-29T08:42:41;3.17;;;2.30;;
52248;SDS011;38541;48.130;8.378;2022-07-29T08:45:08;2.95;;;2.47;;
52248;SDS011;38541;48.130;8.378;2022-07-29T08:47:35;3.05;;;2.30;;
52248;SDS011;38541;48.130;8.378;2022-07-29T08:50:08;3.72;;;2.42;;
52248;SDS011;38541;48.130;8.378;2022-07-29T08:52:36;2.17;;;2.08;;
52248;SDS011;38541;48.130;8.378;2022-07-29T08:55:08;2.40;;;2.00;;
52248;SDS011;38541;48.130;8.378;2022-07-29T08:57:37;2.08;;;1.98;;
52248;SDS011;38541;48.130;8.378;2022-07-29T09:00:17;2.22;;;2.03;;
52248;SDS011;38541;48.130;8.378;2022-07-29T09:02:45;3.13;;;2.05;;
52248;SDS011;38541;48.130;8.378;2022-07-29T09:05:18;1.95;;;1.75;;
52248;SDS011;38541;48.130;8.378;2022-07-29T09:07:45;2.10;;;2.00;;
52248;SDS011;38541;48.130;8.378;2022-07-29T09:10:14;2.15;;;1.98;;
52248;SDS011;38541;48.130;8.378;2022-07-29T09:12:40;3.38;;;2.22;;
52248;SDS011;38541;48.130;8.378;2022-07-29T09:15:07;2.10;;;2.00;;
52248;SDS011;38541;48.130;8.378;2022-07-29T09:17:48;3.05;;;2.10;;
52248;SDS011;38541;48.130;8.378;2022-07-29T09:20:20;3.55;;;2.50;;
52248;SDS011;38541;48.130;8.378;2022-07-29T09:22:51;2.90;;;2.30;;
52248;SDS011;38541;48.130;8.378;2022-07-29T09:25:35;2.42;;;2.20;;
52248;SDS011;38541;48.130;8.378;2022-07-29T09:30:51;2.17;;;1.98;;
52248;SDS011;38541;48.130;8.378;2022-07-29T09:33:22;2.25;;;2.10;;
52248;SDS011;38541;48.130;8.378;2022-07-29T09:38:29;2.42;;;2.30;;
52248;SDS011;38541;48.130;8.378;2022-07-29T09:40:56;2.40;;;2.20;;
52248;SDS011;38541;48.130;8.378;2022-07-29T09:43:31;2.22;;;2.13;;
52248;SDS011;38541;48.130;8.378;2022-07-29T09:46:11;3.13;;;2.47;;
52248;SDS011;38541;48.130;8.378;2022-07-29T09:48:38;3.60;;;2.88;;
52248;SDS011;38541;48.130;8.378;2022-07-29T09:51:05;2.72;;;2.28;;
52248;SDS011;38541;48.130;8.378;2022-07-29T09:53:47;2.40;;;2.25;;
52248;SDS011;38541;48.130;8.378;2022-07-29T09:56:14;4.75;;;2.75;;
52248;SDS011;38541;48.130;8.378;2022-07-29T09:58:40;2.90;;;2.70;;
52248;SDS011;38541;48.130;8.378;2022-07-29T10:01:07;4.15;;;2.47;;
52248;SDS011;38541;48.130;8.378;2022-07-29T10:03:49;3.03;;;2.33;;
52248;SDS011;38541;48.130;8.378;2022-07-29T10:06:17;3.05;;;2.47;;
52248;SDS011;38541;48.130;8.378;2022-07-29T10:08:43;2.92;;;2.53;;
52248;SDS011;38541;48.130;8.378;2022-07-29T10:13:38;3.33;;;2.83;;
52248;SDS011;38541;48.130;8.378;2022-07-29T10:16:06;3.55;;;2.45;;
52248;SDS011;38541;48.130;8.378;2022-07-29T10:18:33;4.30;;;2.67;;
52248;SDS011;38541;48.130;8.378;2022-07-29T10:21:00;2.63;;;2.42;;
52248;SDS011;38541;48.130;8.378;2022-07-29T10:23:30;3.10;;;2.15;;
52248;SDS011;38541;48.130;8.378;2022-07-29T10:26:12;2.40;;;2.30;;
52248;SDS011;38541;48.130;8.378;2022-07-29T10:28:40;2.67;;;2.47;;
52248;SDS011;38541;48.130;8.378;2022-07-29T10:31:08;3.45;;;2.60;;
52248;SDS011;38541;48.130;8.378;2022-07-29T10:36:47;3.38;;;2.75;;
52248;SDS011;38541;48.130;8.378;2022-07-29T10:39:27;2.65;;;2.45;;
52248;SDS011;38541;48.130;8.378;2022-07-29T10:44:39;2.85;;;2.65;;
52248;SDS011;38541;48.130;8.378;2022-07-29T10:47:07;2.40;;;2.30;;
52248;SDS011;38541;48.130;8.378;2022-07-29T10:49:35;3.13;;;2.53;;
52248;SDS011;38541;48.130;8.378;2022-07-29T10:52:07;2.70;;;2.50;;
52248;SDS011;38541;48.130;8.378;2022-07-29T10:59:43;3.05;;;2.78;;
52248;SDS011;38541;48.130;8.378;2022-07-29T11:05:18;3.45;;;2.50;;
52248;SDS011;38541;48.130;8.378;2022-07-29T11:10:46;4.57;;;2.80;;
52248;SDS011;38541;48.130;8.378;2022-07-29T11:16:14;3.00;;;2.42;;
52248;SDS011;38541;48.130;8.378;2022-07-29T11:21:40;2.90;;;2.53;;
52248;SDS011;38541;48.130;8.378;2022-07-29T11:24:27;3.25;;;2.95;;
52248;SDS011;38541;48.130;8.378;2022-07-29T11:27:16;3.08;;;2.78;;
52248;SDS011;38541;48.130;8.378;2022-07-29T11:29:52;3.05;;;2.70;;
52248;SDS011;38541;48.130;8.378;2022-07-29T11:32:35;4.03;;;3.22;;
52248;SDS011;38541;48.130;8.378;2022-07-29T11:35:23;3.55;;;3.03;;
52248;SDS011;38541;48.130;8.378;2022-07-29T11:38:24;3.47;;;2.92;;
52248;SDS011;38541;48.130;8.378;2022-07-29T11:43:46;2.83;;;2.63;;
52248;SDS011;38541;48.130;8.378;2022-07-29T11:46:17;3.00;;;2.70;;
52248;SDS011;38541;48.130;8.378;2022-07-29T11:49:04;2.90;;;2.60;;
52248;SDS011;38541;48.130;8.378;2022-07-29T11:51:35;5.47;;;2.92;;
52248;SDS011;38541;48.130;8.378;2022-07-29T11:54:13;6.53;;;2.85;;
52248;SDS011;38541;48.130;8.378;2022-07-29T11:56:53;2.80;;;2.60;;
52248;SDS011;38541;48.130;8.378;2022-07-29T11:59:20;5.70;;;2.90;;
52248;SDS011;38541;48.130;8.378;2022-07-29T12:01:57;3.00;;;2.70;;
52248;SDS011;38541;48.130;8.378;2022-07-29T12:04:52;2.85;;;2.63;;
52248;SDS011;38541;48.130;8.378;2022-07-29T12:07:26;2.63;;;2.42;;
52248;SDS011;38541;48.130;8.378;2022-07-29T12:10:00;3.72;;;3.15;;
52248;SDS011;38541;48.130;8.378;2022-07-29T12:12:28;2.65;;;2.40;;
52248;SDS011;38541;48.130;8.378;2022-07-29T12:14:54;4.50;;;2.92;;
52248;SDS011;38541;48.130;8.378;2022-07-29T12:17:25;3.47;;;2.95;;
52248;SDS011;38541;48.130;8.378;2022-07-29T12:19:56;3.78;;;2.50;;
52248;SDS011;38541;48.130;8.378;2022-07-29T12:25:07;6.00;;;2.60;;
52248;SDS011;38541;48.130;8.378;2022-07-29T12:28:05;2.95;;;2.67;;
52248;SDS011;38541;48.130;8.378;2022-07-29T12:30:40;4.80;;;2.42;;
52248;SDS011;38541;48.130;8.378;2022-07-29T12:33:20;2.42;;;2.20;;
52248;SDS011;38541;48.130;8.378;2022-07-29T12:35:50;2.75;;;2.50;;
52248;SDS011;38541;48.130;8.378;2022-07-29T12:38:40;2.60;;;2.40;;
52248;SDS011;38541;48.130;8.378;2022-07-29T12:41:08;2.63;;;2.42;;
52248;SDS011;38541;48.130;8.378;2022-07-29T12:43:34;3.85;;;2.42;;
52248;SDS011;38541;48.130;8.378;2022-07-29T12:46:11;3.42;;;2.70;;
52248;SDS011;38541;48.130;8.378;2022-07-29T12:48:40;2.70;;;2.50;;
52248;SDS011;38541;48.130;8.378;2022-07-29T12:51:09;4.03;;;2.50;;
52248;SDS011;38541;48.130;8.378;2022-07-29T12:53:38;2.70;;;2.47;;
52248;SDS011;38541;48.130;8.378;2022-07-29T12:56:05;6.40;;;2.63;;
52248;SDS011;38541;48.130;8.378;2022-07-29T12:58:53;3.17;;;2.45;;
52248;SDS011;38541;48.130;8.378;2022-07-29T13:01:20;2.80;;;2.60;;
52248;SDS011;38541;48.130;8.378;2022-07-29T13:06:29;2.72;;;2.42;;
52248;SDS011;38541;48.130;8.378;2022-07-29T13:09:03;2.20;;;2.10;;
52248;SDS011;38541;48.130;8.378;2022-07-29T13:11:39;2.90;;;2.65;;
52248;SDS011;38541;48.130;8.378;2022-07-29T13:14:34;7.05;;;3.00;;
52248;SDS011;38541;48.130;8.378;2022-07-29T13:22:00;2.65;;;2.38;;
52248;SDS011;38541;48.130;8.378;2022-07-29T13:24:27;2.55;;;2.35;;
52248;SDS011;38541;48.130;8.378;2022-07-29T13:26:55;2.58;;;2.38;;
52248;SDS011;38541;48.130;8.378;2022-07-29T13:29:21;2.63;;;2.42;;
52248;SDS011;38541;48.130;8.378;2022-07-29T13:31:48;4.78;;;2.40;;
52248;SDS011;38541;48.130;8.378;2022-07-29T13:34:15;3.35;;;2.53;;
52248;SDS011;38541;48.130;8.378;2022-07-29T13:36:41;3.95;;;2.35;;
52248;SDS011;38541;48.130;8.378;2022-07-29T13:39:08;2.45;;;2.20;;
52248;SDS011;38541;48.130;8.378;2022-07-29T13:41:34;2.90;;;2.70;;
52248;SDS011;38541;48.130;8.378;2022-07-29T13:44:02;4.10;;;2.92;;
52248;SDS011;38541;48.130;8.378;2022-07-29T13:46:28;3.22;;;2.92;;
52248;SDS011;38541;48.130;8.378;2022-07-29T13:48:55;3.05;;;2.25;;
52248;SDS011;38541;48.130;8.378;2022-07-29T13:51:22;3.47;;;2.33;;
52248;SDS011;38541;48.130;8.378;2022-07-29T13:53:49;3.00;;;2.25;;
52248;SDS011;38541;48.130;8.378;2022-07-29T13:56:15;2.70;;;2.50;;
52248;SDS011;38541;48.130;8.378;2022-07-29T13:58:42;2.85;;;2.60;;
52248;SDS011;38541;48.130;8.378;2022-07-29T14:01:08;2.63;;;2.30;;
52248;SDS011;38541;48.130;8.378;2022-07-29T14:03:35;5.20;;;2.75;;
52248;SDS011;38541;48.130;8.378;2022-07-29T14:06:05;3.00;;;2.80;;
52248;SDS011;38541;48.130;8.378;2022-07-29T14:08:32;2.13;;;1.92;;
52248;SDS011;38541;48.130;8.378;2022-07-29T14:10:58;2.45;;;2.28;;
52248;SDS011;38541;48.130;8.378;2022-07-29T14:13:25;2.22;;;2.03;;
52248;SDS011;38541;48.130;8.378;2022-07-29T14:15:51;3.72;;;2.22;;
52248;SDS011;38541;48.130;8.378;2022-07-29T14:18:18;5.30;;;2.17;;
52248;SDS011;38541;48.130;8.378;2022-07-29T14:20:45;2.40;;;2.28;;
52248;SDS011;38541;48.130;8.378;2022-07-29T14:23:12;5.45;;;2.55;;
52248;SDS011;38541;48.130;8.378;2022-07-29T14:25:41;2.83;;;2.50;;
52248;SDS011;38541;48.130;8.378;2022-07-29T14:28:09;2.33;;;2.17;;
52248;SDS011;38541;48.130;8.378;2022-07-29T14:30:36;2.33;;;2.13;;
52248;SDS011;38541;48.130;8.378;2022-07-29T14:33:03;3.58;;;2.30;;
52248;SDS011;38541;48.130;8.378;2022-07-29T14:35:29;2.08;;;1.98;;
52248;SDS011;38541;48.130;8.378;2022-07-29T14:37:56;2.75;;;2.42;;
52248;SDS011;38541;48.130;8.378;2022-07-29T14:40:23;3.90;;;2.35;;
52248;SDS011;38541;48.130;8.378;2022-07-29T14:42:50;2.45;;;2.30;;
52248;SDS011;38541;48.130;8.378;2022-07-29T14:45:16;2.40;;;2.20;;
52248;SDS011;38541;48.130;8.378;2022-07-29T14:47:43;5.28;;;2.95;;
52248;SDS011;38541;48.130;8.378;2022-07-29T14:50:10;4.43;;;2.38;;
52248;SDS011;38541;48.130;8.378;2022-07-29T14:52:37;2.70;;;2.35;;
52248;SDS011;38541;48.130;8.378;2022-07-29T14:55:04;2.30;;;2.20;;
52248;SDS011;38541;48.130;8.378;2022-07-29T14:57:44;2.88;;;2.42;;
52248;SDS011;38541;48.130;8.378;2022-07-29T15:00:11;3.55;;;2.33;;
52248;SDS011;38541;48.130;8.378;2022-07-29T15:02:38;2.42;;;2.22;;
52248;SDS011;38541;48.130;8.378;2022-07-29T15:05:25;3.58;;;3.00;;
52248;SDS011;38541;48.130;8.378;2022-07-29T15:07:52;4.32;;;2.67;;
52248;SDS011;38541;48.130;8.378;2022-07-29T15:10:19;3.15;;;2.70;;
52248;SDS011;38541;48.130;8.378;2022-07-29T15:12:49;2.60;;;2.40;;
52248;SDS011;38541;48.130;8.378;2022-07-29T15:15:16;2.80;;;2.60;;
52248;SDS011;38541;48.130;8.378;2022-07-29T15:17:43;2.45;;;2.20;;
52248;SDS011;38541;48.130;8.378;2022-07-29T15:20:09;2.78;;;2.55;;
52248;SDS011;38541;48.130;8.378;2022-07-29T15:22:37;3.20;;;2.45;;
52248;SDS011;38541;48.130;8.378;2022-07-29T15:25:05;3.35;;;2.45;;
52248;SDS011;38541;48.130;8.378;2022-07-29T15:27:31;2.65;;;2.45;;
52248;SDS011;38541;48.130;8.378;2022-07-29T15:29:58;8.38;;;2.83;;
52248;SDS011;38541;48.130;8.378;2022-07-29T15:32:25;3.25;;;2.50;;
52248;SDS011;38541;48.130;8.378;2022-07-29T15:34:52;3.25;;;2.88;;
52248;SDS011;38541;48.130;8.378;2022-07-29T15:37:18;2.97;;;2.63;;
52248;SDS011;38541;48.130;8.378;2022-07-29T15:39:45;5.22;;;2.92;;
52248;SDS011;38541;48.130;8.378;2022-07-29T15:42:11;3.67;;;2.55;;
52248;SDS011;38541;48.130;8.378;2022-07-29T15:44:38;4.00;;;2.85;;
52248;SDS011;38541;48.130;8.378;2022-07-29T15:47:04;4.07;;;2.47;;
52248;SDS011;38541;48.130;8.378;2022-07-29T15:49:33;2.80;;;2.60;;
52248;SDS011;38541;48.130;8.378;2022-07-29T15:52:15;2.63;;;2.42;;
52248;SDS011;38541;48.130;8.378;2022-07-29T15:54:50;2.63;;;2.42;;
52248;SDS011;38541;48.130;8.378;2022-07-29T15:57:17;2.58;;;2.20;;
52248;SDS011;38541;48.130;8.378;2022-07-29T15:59:43;2.70;;;2.50;;